WS45 weather

Circle K Airport
Irma, Wisconsin, United States

Public forecast

Using degrees Fahrenheit for public forecast. Weather courtesy of forecast.io.

METAR (pilot weather report)

Closest report is Merrill Municipal Airport, 8.7 nm (16.1 km) S. Retrieved 2019/08/20 00:15 UTC (2 hours ago):

KRRL 200015Z AUTO 00000KT 10SM CLR 22/14 A3002 RMK AO2 T02190140 TSNO

TAF (pilot weather forecast)

Forecast is more than 12 hours old.

Closest forecast is Rhinelander Oneida County Airport, 19.5 nm (36.0 km) NNE. Retrieved 2019/08/19 00:27 UTC (1 day ago):

TAF KRHI 192325Z 2000/2024 24005KT P6SM SKC FM200100 VRB03KT P6SM SKC TEMPO 2008/2012 1SM BR FM201500 20007KT P6SM SCT120 FM201900 22007KT P6SM SCT045 BKN120 TEMPO 2020/2024 BKN045